Time;durP1;ratioP1;P1;durP2;ratioP2;P2;SDS_P1;SDS_P2;PMS_P1;PMS_P2;Temp;Humidity;BMP_temperature;BMP_pressure;BME280_temperature;BME280_humidity;BME280_pressure;Samples;Min_cycle;Max_cycle;Signal;HPM_P1;HPM_P2
2022/07/26 00:01:58;;;;;;;8.25;6.10;;;;;;;;;;5105779;28;20024;-74
2022/07/26 00:04:24;;;;;;;8.35;6.20;;;;;;;;;;5104477;28;20019;-70
2022/07/26 00:06:50;;;;;;;8.07;6.50;;;;;;;;;;5116479;28;20027;-70
2022/07/26 00:09:16;;;;;;;8.75;6.40;;;;;;;;;;5108372;28;20024;-70
2022/07/26 00:11:42;;;;;;;7.15;6.45;;;;;;;;;;5108739;28;20027;-69
2022/07/26 00:14:09;;;;;;;7.22;6.13;;;;;;;;;;5102032;28;20062;-70
2022/07/26 00:16:35;;;;;;;6.70;5.97;;;;;;;;;;5112475;28;20032;-73
2022/07/26 00:19:01;;;;;;;9.23;5.80;;;;;;;;;;5109897;28;20028;-72
2022/07/26 00:21:29;;;;;;;8.23;5.80;;;;;;;;;;5112660;28;20031;-69
2022/07/26 00:23:55;;;;;;;8.93;6.03;;;;;;;;;;5110519;28;20110;-74
2022/07/26 00:26:24;;;;;;;8.52;5.75;;;;;;;;;;5113238;28;20020;-73
2022/07/26 00:28:51;;;;;;;8.98;6.10;;;;;;;;;;5088105;28;20034;-70
2022/07/26 00:31:18;;;;;;;6.93;5.85;;;;;;;;;;5112056;28;20064;-70
2022/07/26 00:33:44;;;;;;;9.40;6.25;;;;;;;;;;5111085;28;20028;-70
2022/07/26 00:36:11;;;;;;;9.57;6.40;;;;;;;;;;5112881;28;20036;-74
2022/07/26 00:38:39;;;;;;;8.43;6.88;;;;;;;;;;5097395;28;20031;-73
2022/07/26 00:41:05;;;;;;;7.60;6.80;;;;;;;;;;5088057;28;20054;-73
2022/07/26 00:43:31;;;;;;;8.93;7.30;;;;;;;;;;5106325;28;20107;-70
2022/07/26 00:45:58;;;;;;;10.65;7.18;;;;;;;;;;5111941;28;20089;-73
2022/07/26 00:48:24;;;;;;;10.32;7.40;;;;;;;;;;5112096;28;20036;-70
2022/07/26 00:50:52;;;;;;;8.93;7.55;;;;;;;;;;5109553;28;20498;-70
2022/07/26 00:53:21;;;;;;;9.82;7.53;;;;;;;;;;5110241;28;20059;-70
2022/07/26 00:55:50;;;;;;;10.70;8.20;;;;;;;;;;5110907;28;20155;-73
2022/07/26 00:58:17;;;;;;;14.70;9.25;;;;;;;;;;5115327;28;20035;-73
2022/07/26 01:00:44;;;;;;;10.65;9.23;;;;;;;;;;5096044;28;20039;-70
2022/07/26 01:03:10;;;;;;;12.25;9.25;;;;;;;;;;5096645;28;20024;-70
2022/07/26 01:05:36;;;;;;;12.10;8.55;;;;;;;;;;5108605;28;20511;-74
2022/07/26 01:08:02;;;;;;;9.13;7.55;;;;;;;;;;5112312;28;20465;-73
2022/07/26 01:10:28;;;;;;;9.85;7.82;;;;;;;;;;5111414;28;20076;-69
2022/07/26 01:12:54;;;;;;;10.43;7.10;;;;;;;;;;5107958;28;20034;-69
2022/07/26 01:15:22;;;;;;;8.40;7.03;;;;;;;;;;5110906;28;20039;-70
2022/07/26 01:17:48;;;;;;;8.93;6.90;;;;;;;;;;5110848;28;20063;-69
2022/07/26 01:20:14;;;;;;;8.73;6.80;;;;;;;;;;5110355;28;20126;-71
2022/07/26 01:22:40;;;;;;;7.60;6.28;;;;;;;;;;5111235;28;20019;-70
2022/07/26 01:25:07;;;;;;;9.00;6.57;;;;;;;;;;5101131;28;20020;-70
2022/07/26 01:27:37;;;;;;;7.45;6.57;;;;;;;;;;5104397;28;20028;-72
2022/07/26 01:30:04;;;;;;;7.38;6.10;;;;;;;;;;5111428;28;20131;-70
2022/07/26 01:32:30;;;;;;;9.98;6.40;;;;;;;;;;5109373;28;20380;-72
2022/07/26 01:34:56;;;;;;;7.38;6.32;;;;;;;;;;5111590;28;20067;-70
2022/07/26 01:37:22;;;;;;;8.93;6.63;;;;;;;;;;5105251;28;20016;-71
2022/07/26 01:39:48;;;;;;;7.35;6.20;;;;;;;;;;5108917;28;20038;-70
2022/07/26 01:42:14;;;;;;;7.82;6.10;;;;;;;;;;5110386;28;20027;-71
2022/07/26 01:44:41;;;;;;;8.15;6.65;;;;;;;;;;5100115;28;20039;-74
2022/07/26 01:47:07;;;;;;;8.15;6.18;;;;;;;;;;5101521;28;20106;-72
2022/07/26 01:49:33;;;;;;;8.80;6.05;;;;;;;;;;5096785;28;20396;-72
2022/07/26 01:51:59;;;;;;;7.68;6.03;;;;;;;;;;5114886;28;20179;-73
2022/07/26 01:54:25;;;;;;;9.32;6.20;;;;;;;;;;5112633;28;20064;-70
2022/07/26 01:56:51;;;;;;;7.63;6.13;;;;;;;;;;5114125;28;20412;-73
2022/07/26 01:59:17;;;;;;;8.18;6.05;;;;;;;;;;5114383;28;20055;-73
2022/07/26 02:01:44;;;;;;;7.60;5.93;;;;;;;;;;5115804;28;20020;-74
2022/07/26 02:04:57;;;;;;;6.65;5.90;;;;;;;;;;5084520;28;20103;-70
2022/07/26 02:06:56;;;;;;;8.68;6.32;;;;;;;;;;5115120;28;20043;-69
2022/07/26 02:09:22;;;;;;;7.38;6.03;;;;;;;;;;5096913;28;20043;-73
2022/07/26 02:11:49;;;;;;;8.13;5.95;;;;;;;;;;5097632;28;20092;-71
2022/07/26 02:14:15;;;;;;;7.70;5.82;;;;;;;;;;5110878;28;20024;-73
2022/07/26 02:16:41;;;;;;;9.13;6.10;;;;;;;;;;5113724;28;20053;-73
2022/07/26 02:19:07;;;;;;;8.27;6.18;;;;;;;;;;5115296;28;20020;-72
2022/07/26 02:21:33;;;;;;;6.72;5.90;;;;;;;;;;5114230;28;20035;-73
2022/07/26 02:24:00;;;;;;;7.57;5.72;;;;;;;;;;5120859;28;20027;-74
2022/07/26 02:26:26;;;;;;;6.20;5.60;;;;;;;;;;5111974;28;20148;-72
2022/07/26 02:28:52;;;;;;;6.78;6.00;;;;;;;;;;5115182;28;20023;-70
2022/07/26 02:31:18;;;;;;;7.30;5.90;;;;;;;;;;5109008;28;20012;-72
2022/07/26 02:33:44;;;;;;;6.47;5.78;;;;;;;;;;5115169;28;20072;-69
2022/07/26 02:36:10;;;;;;;9.82;5.63;;;;;;;;;;5113737;28;20031;-70
2022/07/26 02:38:36;;;;;;;6.55;5.90;;;;;;;;;;5106974;28;20027;-70
2022/07/26 02:41:02;;;;;;;8.77;6.20;;;;;;;;;;5108973;28;20096;-70
2022/07/26 02:43:30;;;;;;;12.55;6.00;;;;;;;;;;5112077;28;20027;-70
2022/07/26 02:45:56;;;;;;;6.25;5.45;;;;;;;;;;5108642;28;20036;-70
2022/07/26 02:48:22;;;;;;;8.95;6.10;;;;;;;;;;5114538;28;20103;-70
2022/07/26 02:50:48;;;;;;;6.35;5.75;;;;;;;;;;5114893;28;20028;-70
2022/07/26 02:53:14;;;;;;;6.85;6.00;;;;;;;;;;5112597;28;20023;-72
2022/07/26 02:55:40;;;;;;;7.43;5.65;;;;;;;;;;5119718;28;20024;-73
2022/07/26 02:58:06;;;;;;;8.40;5.60;;;;;;;;;;5092533;28;20472;-73
2022/07/26 03:00:32;;;;;;;9.10;6.38;;;;;;;;;;5110212;28;20473;-70
2022/07/26 03:02:59;;;;;;;8.32;5.88;;;;;;;;;;5098132;28;20051;-71
2022/07/26 03:05:25;;;;;;;8.45;6.20;;;;;;;;;;5114189;28;20472;-70
2022/07/26 03:07:51;;;;;;;6.97;6.05;;;;;;;;;;5112785;28;20035;-70
2022/07/26 03:10:17;;;;;;;7.05;6.18;;;;;;;;;;5113920;28;20073;-72
2022/07/26 03:12:44;;;;;;;8.18;5.80;;;;;;;;;;5110762;28;20042;-73
2022/07/26 03:15:10;;;;;;;9.68;6.03;;;;;;;;;;5113181;28;20078;-70
2022/07/26 03:17:37;;;;;;;9.07;6.20;;;;;;;;;;5112899;28;20028;-74
2022/07/26 03:20:04;;;;;;;7.85;6.15;;;;;;;;;;5105118;28;20481;-71
2022/07/26 03:22:30;;;;;;;7.40;6.15;;;;;;;;;;5112642;28;20047;-70
2022/07/26 03:24:58;;;;;;;7.50;6.05;;;;;;;;;;5108686;28;20389;-73
2022/07/26 03:27:25;;;;;;;8.68;6.03;;;;;;;;;;5094492;28;20027;-69
2022/07/26 03:29:51;;;;;;;7.55;6.13;;;;;;;;;;5112091;28;20027;-72
2022/07/26 03:32:17;;;;;;;9.98;6.40;;;;;;;;;;5102443;27;20108;-69
2022/07/26 03:34:43;;;;;;;7.97;6.30;;;;;;;;;;5104789;28;20035;-70
2022/07/26 03:37:09;;;;;;;7.70;6.15;;;;;;;;;;5113559;28;20047;-72
2022/07/26 03:39:37;;;;;;;11.68;6.43;;;;;;;;;;5111244;28;20127;-73
2022/07/26 03:42:03;;;;;;;9.40;5.60;;;;;;;;;;5110950;28;20072;-70
2022/07/26 03:44:29;;;;;;;8.38;5.88;;;;;;;;;;5109777;28;20048;-70
2022/07/26 03:46:55;;;;;;;7.75;6.13;;;;;;;;;;5103908;28;20501;-72
2022/07/26 03:49:21;;;;;;;11.88;6.43;;;;;;;;;;5111261;28;20023;-73
2022/07/26 03:51:47;;;;;;;7.90;5.07;;;;;;;;;;5099031;28;20024;-71
2022/07/26 03:54:13;;;;;;;8.57;5.95;;;;;;;;;;5102678;28;20024;-71
2022/07/26 03:56:40;;;;;;;10.85;5.65;;;;;;;;;;5096817;28;20032;-73
2022/07/26 03:59:07;;;;;;;7.45;5.80;;;;;;;;;;5104241;27;20093;-73
2022/07/26 04:01:34;;;;;;;9.85;6.82;;;;;;;;;;5089425;28;20560;-70
2022/07/26 04:04:00;;;;;;;9.05;6.07;;;;;;;;;;5073987;28;20067;-70
2022/07/26 04:06:29;;;;;;;9.02;5.35;;;;;;;;;;5090576;28;20492;-77
2022/07/26 04:08:55;;;;;;;8.00;5.82;;;;;;;;;;5111128;28;20047;-73
2022/07/26 04:11:25;;;;;;;11.00;5.75;;;;;;;;;;5084549;27;20032;-72
2022/07/26 04:13:51;;;;;;;9.10;5.85;;;;;;;;;;5086956;28;20042;-75
2022/07/26 04:16:17;;;;;;;10.63;6.00;;;;;;;;;;5108122;28;20393;-74
2022/07/26 04:18:43;;;;;;;8.20;6.43;;;;;;;;;;5108090;28;20053;-74
2022/07/26 04:21:09;;;;;;;8.77;6.10;;;;;;;;;;5109751;28;20028;-75
2022/07/26 04:23:44;;;;;;;9.80;6.07;;;;;;;;;;5111560;28;20047;-72
2022/07/26 04:26:12;;;;;;;20.60;9.13;;;;;;;;;;5111851;28;20031;-75
2022/07/26 04:28:38;;;;;;;19.13;7.95;;;;;;;;;;5099545;28;20035;-75
2022/07/26 04:31:04;;;;;;;12.65;6.93;;;;;;;;;;5105251;28;20028;-78
2022/07/26 04:33:30;;;;;;;11.95;7.57;;;;;;;;;;5107937;28;20036;-75
2022/07/26 04:35:56;;;;;;;17.80;7.47;;;;;;;;;;5106683;28;20129;-75
2022/07/26 04:38:39;;;;;;;13.85;6.90;;;;;;;;;;5103293;28;20099;-77
2022/07/26 04:41:09;;;;;;;8.02;6.47;;;;;;;;;;5105926;28;20035;-73
2022/07/26 04:43:36;;;;;;;7.30;6.18;;;;;;;;;;5099221;28;20072;-72
2022/07/26 04:46:02;;;;;;;9.25;6.47;;;;;;;;;;5105412;28;20060;-74
2022/07/26 04:48:28;;;;;;;11.63;6.40;;;;;;;;;;5109709;28;20023;-76
2022/07/26 04:50:54;;;;;;;9.90;6.15;;;;;;;;;;5109910;28;20110;-78
2022/07/26 04:53:22;;;;;;;14.27;7.50;;;;;;;;;;5109127;28;20023;-76
2022/07/26 04:55:48;;;;;;;6.97;5.93;;;;;;;;;;5108195;28;20032;-74
2022/07/26 04:58:14;;;;;;;9.40;6.10;;;;;;;;;;5112455;28;20031;-74
2022/07/26 05:00:41;;;;;;;11.05;6.60;;;;;;;;;;5108827;28;20028;-74
2022/07/26 05:03:07;;;;;;;15.45;6.85;;;;;;;;;;5107423;28;20025;-75
2022/07/26 05:05:33;;;;;;;11.25;6.45;;;;;;;;;;5087765;28;20035;-75
2022/07/26 05:08:01;;;;;;;8.57;6.18;;;;;;;;;;5102773;28;20106;-76
2022/07/26 05:10:29;;;;;;;8.98;6.65;;;;;;;;;;5097334;28;20028;-75
2022/07/26 05:12:55;;;;;;;8.15;6.15;;;;;;;;;;5111189;28;20031;-74
2022/07/26 05:15:21;;;;;;;12.07;6.50;;;;;;;;;;5110057;28;20040;-74
2022/07/26 05:17:47;;;;;;;9.93;6.10;;;;;;;;;;5110526;28;20023;-75
2022/07/26 05:20:14;;;;;;;11.27;6.70;;;;;;;;;;5112396;27;20030;-72
2022/07/26 05:22:40;;;;;;;13.10;6.28;;;;;;;;;;5098999;28;20020;-72
2022/07/26 05:25:07;;;;;;;8.40;6.80;;;;;;;;;;5106359;28;20024;-75
2022/07/26 05:27:34;;;;;;;8.30;6.70;;;;;;;;;;5100868;27;20024;-71
2022/07/26 05:30:00;;;;;;;12.23;6.55;;;;;;;;;;5089231;28;20028;-71
2022/07/26 05:32:29;;;;;;;13.27;7.00;;;;;;;;;;5084303;28;20023;-78
2022/07/26 05:34:55;;;;;;;8.85;6.55;;;;;;;;;;5106234;28;20036;-76
2022/07/26 05:37:21;;;;;;;12.50;7.20;;;;;;;;;;5109886;27;20027;-73
2022/07/26 05:39:47;;;;;;;11.65;6.90;;;;;;;;;;5107265;28;20016;-77
2022/07/26 05:42:13;;;;;;;10.75;6.93;;;;;;;;;;5102661;28;20489;-71
2022/07/26 05:44:39;;;;;;;12.85;7.38;;;;;;;;;;5112004;28;20070;-74
2022/07/26 05:47:05;;;;;;;7.75;6.68;;;;;;;;;;5087147;28;20100;-74
2022/07/26 05:49:32;;;;;;;12.60;6.90;;;;;;;;;;5114624;28;20059;-73
2022/07/26 05:51:58;;;;;;;70.05;10.52;;;;;;;;;;5113801;28;20553;-73
2022/07/26 05:54:24;;;;;;;11.52;7.10;;;;;;;;;;5109678;28;20016;-75
2022/07/26 05:56:50;;;;;;;13.32;7.57;;;;;;;;;;5115435;28;20047;-73
2022/07/26 05:59:16;;;;;;;13.90;7.18;;;;;;;;;;5105407;28;20016;-73
2022/07/26 06:01:42;;;;;;;13.63;7.07;;;;;;;;;;5107732;28;20390;-75
2022/07/26 06:04:09;;;;;;;9.10;6.72;;;;;;;;;;5115583;28;20030;-71
2022/07/26 06:06:35;;;;;;;8.10;6.45;;;;;;;;;;5115373;28;20028;-73
2022/07/26 06:09:01;;;;;;;14.57;7.10;;;;;;;;;;5115222;28;20047;-71
2022/07/26 06:11:27;;;;;;;9.65;6.75;;;;;;;;;;5103185;28;20107;-73
2022/07/26 06:13:53;;;;;;;10.30;7.03;;;;;;;;;;5106119;28;20036;-73
2022/07/26 06:16:19;;;;;;;12.55;6.65;;;;;;;;;;5110165;28;20473;-73
2022/07/26 06:18:46;;;;;;;12.23;7.07;;;;;;;;;;5115062;28;20472;-72
2022/07/26 06:21:12;;;;;;;9.57;6.80;;;;;;;;;;5094696;28;20507;-73
2022/07/26 06:23:38;;;;;;;23.00;6.70;;;;;;;;;;5096581;28;20039;-73
2022/07/26 06:26:05;;;;;;;9.65;6.45;;;;;;;;;;5112020;28;20035;-74
2022/07/26 06:28:31;;;;;;;11.32;6.28;;;;;;;;;;5096981;28;20034;-72
2022/07/26 06:30:57;;;;;;;10.85;6.50;;;;;;;;;;5113661;28;20169;-73
2022/07/26 06:33:26;;;;;;;9.55;6.07;;;;;;;;;;5109310;28;20039;-74
2022/07/26 06:35:53;;;;;;;6.75;5.80;;;;;;;;;;5090023;28;20080;-73
2022/07/26 06:38:19;;;;;;;7.80;5.95;;;;;;;;;;5111216;28;20417;-71
2022/07/26 06:40:45;;;;;;;19.20;7.28;;;;;;;;;;5110076;28;20125;-74
2022/07/26 06:43:11;;;;;;;6.25;5.65;;;;;;;;;;5085049;28;20015;-73
2022/07/26 06:45:37;;;;;;;6.88;6.13;;;;;;;;;;5100943;28;20039;-72
2022/07/26 06:48:03;;;;;;;7.47;6.35;;;;;;;;;;5110239;28;20073;-74
2022/07/26 06:50:30;;;;;;;8.93;6.35;;;;;;;;;;5100613;28;20480;-73
2022/07/26 06:52:59;;;;;;;14.38;6.78;;;;;;;;;;5106240;28;20035;-72
2022/07/26 06:55:25;;;;;;;7.85;6.90;;;;;;;;;;5107031;28;20027;-75
2022/07/26 06:57:51;;;;;;;9.55;6.82;;;;;;;;;;5111582;28;20419;-72
2022/07/26 07:00:17;;;;;;;6.70;5.95;;;;;;;;;;5103542;28;20120;-73
2022/07/26 07:02:44;;;;;;;12.98;6.30;;;;;;;;;;5111794;28;20035;-73
2022/07/26 07:05:13;;;;;;;10.30;6.30;;;;;;;;;;5103150;28;20035;-77
2022/07/26 07:07:39;;;;;;;9.07;5.82;;;;;;;;;;5104543;28;20074;-75
2022/07/26 07:10:05;;;;;;;10.38;6.30;;;;;;;;;;5106491;28;20114;-85
2022/07/26 07:12:31;;;;;;;9.43;6.35;;;;;;;;;;5093519;28;20458;-79
2022/07/26 07:14:57;;;;;;;9.25;5.95;;;;;;;;;;5107874;28;20024;-78
2022/07/26 07:17:23;;;;;;;7.75;6.15;;;;;;;;;;5108274;28;20076;-77
2022/07/26 07:19:52;;;;;;;7.15;6.03;;;;;;;;;;5105803;28;20054;-82
2022/07/26 07:24:49;;;;;;;8.73;6.00;;;;;;;;;;5109076;28;20454;-78
2022/07/26 07:27:15;;;;;;;9.73;5.97;;;;;;;;;;5093828;28;20031;-81
2022/07/26 07:29:41;;;;;;;8.07;6.38;;;;;;;;;;5109472;28;20040;-77
2022/07/26 07:32:07;;;;;;;18.85;6.72;;;;;;;;;;5107643;28;20094;-78
2022/07/26 07:34:33;;;;;;;7.60;6.13;;;;;;;;;;5086520;28;20016;-86
2022/07/26 07:36:59;;;;;;;8.15;5.95;;;;;;;;;;5093914;28;20540;-81
2022/07/26 07:39:25;;;;;;;7.05;6.10;;;;;;;;;;5083431;28;20024;-76
2022/07/26 07:41:51;;;;;;;12.70;6.53;;;;;;;;;;5102030;27;20035;-74
2022/07/26 07:44:18;;;;;;;11.57;5.70;;;;;;;;;;5095407;28;20026;-82
2022/07/26 07:46:44;;;;;;;8.80;6.05;;;;;;;;;;5084180;28;20619;-76
2022/07/26 07:49:10;;;;;;;7.90;5.97;;;;;;;;;;5110571;28;20492;-73
2022/07/26 07:51:36;;;;;;;6.63;5.95;;;;;;;;;;5102057;28;20362;-89
2022/07/26 07:54:02;;;;;;;10.07;6.13;;;;;;;;;;5101173;28;20035;-82
2022/07/26 07:56:28;;;;;;;6.93;5.88;;;;;;;;;;5102520;28;20030;-74
2022/07/26 07:58:54;;;;;;;5.82;5.20;;;;;;;;;;5104729;28;20052;-75
2022/07/26 08:01:20;;;;;;;14.77;5.88;;;;;;;;;;5098527;28;20469;-79
2022/07/26 08:03:47;;;;;;;9.38;5.57;;;;;;;;;;5087976;28;20127;-75
2022/07/26 08:06:13;;;;;;;9.60;5.30;;;;;;;;;;5108718;28;20032;-77
2022/07/26 08:08:39;;;;;;;13.13;6.22;;;;;;;;;;5106778;28;20026;-73
2022/07/26 08:11:05;;;;;;;9.95;5.43;;;;;;;;;;5098868;28;20024;-70
2022/07/26 08:13:31;;;;;;;8.43;5.72;;;;;;;;;;5098534;28;20085;-72
2022/07/26 08:15:57;;;;;;;6.97;5.22;;;;;;;;;;5104072;28;20028;-72
2022/07/26 08:18:24;;;;;;;8.80;5.30;;;;;;;;;;5081013;28;20023;-73
2022/07/26 08:20:50;;;;;;;10.02;5.88;;;;;;;;;;5090806;28;20035;-75
2022/07/26 08:23:17;;;;;;;10.43;6.05;;;;;;;;;;5103221;28;20109;-79
2022/07/26 08:25:43;;;;;;;7.43;5.68;;;;;;;;;;5096202;28;20028;-75
2022/07/26 08:28:09;;;;;;;7.35;5.72;;;;;;;;;;5095268;28;20070;-78
2022/07/26 08:30:35;;;;;;;8.05;5.80;;;;;;;;;;5092428;28;20030;-76
2022/07/26 08:33:01;;;;;;;10.20;5.78;;;;;;;;;;5074156;28;20023;-73
2022/07/26 08:35:28;;;;;;;9.07;5.80;;;;;;;;;;5097015;28;20087;-76
2022/07/26 08:37:54;;;;;;;7.85;5.30;;;;;;;;;;5099168;28;20477;-72
2022/07/26 08:40:20;;;;;;;10.00;5.65;;;;;;;;;;5092640;28;20385;-78
2022/07/26 08:42:50;;;;;;;8.02;6.00;;;;;;;;;;5093429;28;20124;-77
2022/07/26 08:45:22;;;;;;;6.15;5.47;;;;;;;;;;5093681;28;20047;-78
2022/07/26 08:47:53;;;;;;;14.45;5.55;;;;;;;;;;5096434;28;20019;-78
2022/07/26 08:50:22;;;;;;;7.43;5.80;;;;;;;;;;5073756;28;20030;-72
2022/07/26 08:52:49;;;;;;;9.68;6.35;;;;;;;;;;5104664;28;20025;-72
2022/07/26 08:55:16;;;;;;;11.05;5.78;;;;;;;;;;5100980;28;20562;-72
2022/07/26 08:57:42;;;;;;;7.70;5.53;;;;;;;;;;5107587;28;20469;-77
2022/07/26 09:00:25;;;;;;;9.25;6.00;;;;;;;;;;5077461;28;20469;-71
2022/07/26 09:02:52;;;;;;;13.95;6.03;;;;;;;;;;5099352;28;20031;-79
2022/07/26 09:05:21;;;;;;;8.27;5.50;;;;;;;;;;5104071;28;20038;-78
2022/07/26 09:07:50;;;;;;;17.10;6.20;;;;;;;;;;5082457;28;20034;-77
2022/07/26 09:10:16;;;;;;;10.52;5.90;;;;;;;;;;5091691;28;20055;-78
2022/07/26 09:12:42;;;;;;;6.18;5.57;;;;;;;;;;5097640;28;20056;-78
2022/07/26 09:15:17;;;;;;;8.45;5.38;;;;;;;;;;5111740;28;20051;-75
2022/07/26 09:17:45;;;;;;;8.18;5.65;;;;;;;;;;5110181;28;20046;-78
2022/07/26 09:20:22;;;;;;;7.35;6.00;;;;;;;;;;5096463;28;20028;-77
2022/07/26 09:23:01;;;;;;;7.95;6.15;;;;;;;;;;5080717;28;20068;-77
2022/07/26 09:25:29;;;;;;;11.13;5.85;;;;;;;;;;5088010;28;20039;-76
2022/07/26 09:27:55;;;;;;;7.85;5.55;;;;;;;;;;5076663;28;20028;-77
2022/07/26 09:30:21;;;;;;;6.32;5.25;;;;;;;;;;5084414;28;20038;-75
2022/07/26 09:32:56;;;;;;;8.52;5.72;;;;;;;;;;5077205;28;20013;-73
2022/07/26 09:35:22;;;;;;;6.72;5.60;;;;;;;;;;5084107;28;20035;-74
2022/07/26 09:37:53;;;;;;;8.95;6.20;;;;;;;;;;5077720;28;20023;-78
2022/07/26 09:40:22;;;;;;;6.63;5.45;;;;;;;;;;5074852;28;20029;-72
2022/07/26 09:42:56;;;;;;;5.82;5.25;;;;;;;;;;5077800;28;20028;-72
2022/07/26 09:45:23;;;;;;;12.55;5.95;;;;;;;;;;5087853;28;20029;-72
2022/07/26 09:47:49;;;;;;;6.32;5.28;;;;;;;;;;5077320;28;20104;-76
2022/07/26 09:50:20;;;;;;;6.28;5.10;;;;;;;;;;5073927;28;20016;-77
2022/07/26 09:53:03;;;;;;;7.38;4.88;;;;;;;;;;5075222;28;20024;-74
2022/07/26 09:55:30;;;;;;;13.18;5.05;;;;;;;;;;5084009;28;20052;-77
2022/07/26 09:57:58;;;;;;;8.93;5.35;;;;;;;;;;5079753;28;20064;-76
2022/07/26 10:00:25;;;;;;;5.78;4.93;;;;;;;;;;5082500;28;20062;-76
2022/07/26 10:02:54;;;;;;;6.32;5.13;;;;;;;;;;5080283;28;20398;-86
2022/07/26 10:05:23;;;;;;;6.38;4.90;;;;;;;;;;5081987;28;20481;-80
2022/07/26 10:07:49;;;;;;;12.60;5.15;;;;;;;;;;5082236;28;20024;-80
2022/07/26 10:10:25;;;;;;;10.45;4.90;;;;;;;;;;5082969;28;20024;-81
2022/07/26 10:12:54;;;;;;;11.40;6.80;;;;;;;;;;5077770;28;20034;-85
2022/07/26 10:15:33;;;;;;;7.88;5.57;;;;;;;;;;5077608;28;20103;-86
2022/07/26 10:17:59;;;;;;;5.95;5.35;;;;;;;;;;5086604;28;20063;-83
2022/07/26 10:20:46;;;;;;;7.20;5.05;;;;;;;;;;5083816;28;20623;-78
2022/07/26 10:23:31;;;;;;;8.27;5.43;;;;;;;;;;5092346;28;20090;-77
2022/07/26 10:25:57;;;;;;;10.95;5.68;;;;;;;;;;5087600;28;20097;-81
2022/07/26 10:28:25;;;;;;;6.05;5.45;;;;;;;;;;5106391;28;20041;-79
2022/07/26 10:30:51;;;;;;;6.13;5.38;;;;;;;;;;5106185;28;20032;-80
2022/07/26 10:33:17;;;;;;;8.75;5.70;;;;;;;;;;5105270;28;20115;-80
2022/07/26 10:35:44;;;;;;;6.63;5.10;;;;;;;;;;5093906;28;20080;-79
2022/07/26 10:38:11;;;;;;;7.80;5.57;;;;;;;;;;5095403;28;20039;-80
2022/07/26 10:40:39;;;;;;;7.57;5.43;;;;;;;;;;5097755;28;20032;-75
2022/07/26 10:43:10;;;;;;;11.70;5.22;;;;;;;;;;5104176;28;20505;-80
2022/07/26 10:45:36;;;;;;;11.40;5.03;;;;;;;;;;5101764;28;20055;-78
2022/07/26 10:48:10;;;;;;;6.85;4.97;;;;;;;;;;5103098;28;20476;-72
2022/07/26 10:50:36;;;;;;;6.20;5.00;;;;;;;;;;5102970;28;20096;-71
2022/07/26 10:53:02;;;;;;;10.70;5.38;;;;;;;;;;5088540;28;20048;-80
2022/07/26 10:55:29;;;;;;;5.97;5.28;;;;;;;;;;5080532;28;20103;-73
2022/07/26 10:57:55;;;;;;;6.38;5.32;;;;;;;;;;5106301;28;20507;-74
2022/07/26 11:00:22;;;;;;;7.70;5.40;;;;;;;;;;5106212;28;20070;-74
2022/07/26 11:02:58;;;;;;;6.35;5.03;;;;;;;;;;5102978;27;20032;-70
2022/07/26 11:05:29;;;;;;;7.28;5.00;;;;;;;;;;5109634;27;20039;-71
2022/07/26 11:08:03;;;;;;;12.70;5.72;;;;;;;;;;5115911;27;20129;-70
2022/07/26 11:10:39;;;;;;;7.50;5.25;;;;;;;;;;5103773;28;20396;-73
2022/07/26 11:13:10;;;;;;;8.90;5.40;;;;;;;;;;5104522;28;20024;-70
2022/07/26 11:15:37;;;;;;;6.57;4.60;;;;;;;;;;5101883;27;20045;-76
2022/07/26 11:18:07;;;;;;;6.13;4.90;;;;;;;;;;5097919;27;20088;-71
2022/07/26 11:20:33;;;;;;;9.85;5.55;;;;;;;;;;5112833;27;20027;-74
2022/07/26 11:22:59;;;;;;;6.78;5.30;;;;;;;;;;5107996;28;20361;-71
2022/07/26 11:25:26;;;;;;;6.13;5.05;;;;;;;;;;5118566;27;20036;-72
2022/07/26 11:28:05;;;;;;;6.70;4.93;;;;;;;;;;5098969;28;20028;-74
2022/07/26 11:30:42;;;;;;;6.72;5.20;;;;;;;;;;5095253;28;20043;-70
2022/07/26 11:33:19;;;;;;;6.88;4.82;;;;;;;;;;5079494;28;20031;-70
2022/07/26 11:35:55;;;;;;;6.40;5.10;;;;;;;;;;5084529;28;20028;-70
2022/07/26 11:38:42;;;;;;;5.72;5.05;;;;;;;;;;5082050;28;20131;-70
2022/07/26 11:41:09;;;;;;;6.75;5.57;;;;;;;;;;5083431;28;20051;-70
2022/07/26 11:43:44;;;;;;;6.70;5.60;;;;;;;;;;5096988;28;20028;-71
2022/07/26 11:46:10;;;;;;;7.03;5.43;;;;;;;;;;5085135;28;20105;-68
2022/07/26 11:48:36;;;;;;;5.95;5.35;;;;;;;;;;5107418;27;20532;-68
2022/07/26 11:51:12;;;;;;;6.68;5.60;;;;;;;;;;5104041;28;20032;-68
2022/07/26 11:53:38;;;;;;;8.50;5.50;;;;;;;;;;5098053;28;20024;-69
2022/07/26 11:56:11;;;;;;;7.40;5.30;;;;;;;;;;5104108;28;20030;-67
2022/07/26 11:58:41;;;;;;;8.35;5.57;;;;;;;;;;5101860;28;20022;-68
2022/07/26 12:01:11;;;;;;;6.65;5.72;;;;;;;;;;5108778;28;20673;-72
2022/07/26 12:03:38;;;;;;;5.90;5.30;;;;;;;;;;5096181;28;20027;-68
2022/07/26 12:06:08;;;;;;;7.40;5.25;;;;;;;;;;5100867;28;20175;-68
2022/07/26 12:08:42;;;;;;;7.95;4.97;;;;;;;;;;5102900;28;20043;-69
2022/07/26 12:11:08;;;;;;;7.35;5.20;;;;;;;;;;5107773;28;20126;-69
2022/07/26 12:13:58;;;;;;;9.32;5.70;;;;;;;;;;5085456;28;20027;-68
2022/07/26 12:16:39;;;;;;;6.78;5.35;;;;;;;;;;5026516;28;20041;-69
2022/07/26 12:19:06;;;;;;;6.25;5.45;;;;;;;;;;5026749;28;20096;-69
2022/07/26 12:21:40;;;;;;;68.93;10.48;;;;;;;;;;5012725;28;20091;-70
2022/07/26 12:24:06;;;;;;;6.13;5.47;;;;;;;;;;5030945;28;20098;-69
2022/07/26 12:26:33;;;;;;;8.52;5.07;;;;;;;;;;5024662;28;20510;-69
2022/07/26 12:31:44;;;;;;;12.52;5.63;;;;;;;;;;5022849;28;20398;-71
2022/07/26 12:34:10;;;;;;;7.88;5.50;;;;;;;;;;5027380;28;20044;-68
2022/07/26 12:36:36;;;;;;;8.90;6.20;;;;;;;;;;5026422;28;20036;-66
2022/07/26 12:39:04;;;;;;;8.60;5.22;;;;;;;;;;5029576;28;20026;-66
2022/07/26 12:41:39;;;;;;;6.35;5.20;;;;;;;;;;5028940;28;20049;-67
2022/07/26 12:44:06;;;;;;;5.93;5.32;;;;;;;;;;5023806;28;20033;-66
2022/07/26 12:46:34;;;;;;;12.10;5.97;;;;;;;;;;5029115;28;20052;-67
2022/07/26 12:49:00;;;;;;;6.95;5.50;;;;;;;;;;5029292;28;20029;-66
2022/07/26 12:51:26;;;;;;;28.80;6.72;;;;;;;;;;5029186;28;20112;-67
2022/07/26 12:53:52;;;;;;;6.30;5.32;;;;;;;;;;5079833;28;20052;-67
2022/07/26 12:56:18;;;;;;;11.68;5.30;;;;;;;;;;5102292;28;20496;-68
2022/07/26 12:58:44;;;;;;;8.57;5.40;;;;;;;;;;5108618;28;20671;-66
2022/07/26 13:01:10;;;;;;;9.77;5.43;;;;;;;;;;5097379;28;20043;-66
2022/07/26 13:03:37;;;;;;;11.13;5.78;;;;;;;;;;5101202;28;20023;-66
2022/07/26 13:06:03;;;;;;;10.55;5.18;;;;;;;;;;5101504;28;20051;-68
2022/07/26 13:08:29;;;;;;;5.85;5.25;;;;;;;;;;5101664;28;20020;-66
2022/07/26 13:10:55;;;;;;;5.78;5.03;;;;;;;;;;5094172;28;20041;-66
2022/07/26 13:13:21;;;;;;;7.85;5.75;;;;;;;;;;5109885;28;20020;-67
2022/07/26 13:15:47;;;;;;;7.10;6.00;;;;;;;;;;5100477;28;20024;-67
2022/07/26 13:18:13;;;;;;;6.30;5.20;;;;;;;;;;5105659;28;20024;-66
2022/07/26 13:20:39;;;;;;;8.35;5.60;;;;;;;;;;5094574;28;20027;-65
2022/07/26 13:23:10;;;;;;;7.75;5.45;;;;;;;;;;5106526;28;20028;-65
2022/07/26 13:25:36;;;;;;;8.52;5.93;;;;;;;;;;5112124;28;20549;-65
2022/07/26 13:28:03;;;;;;;8.95;5.70;;;;;;;;;;5106471;28;20024;-65
2022/07/26 13:30:29;;;;;;;6.93;5.32;;;;;;;;;;5096474;28;20393;-64
2022/07/26 13:32:55;;;;;;;11.63;6.00;;;;;;;;;;5106590;28;20062;-65
2022/07/26 13:35:21;;;;;;;15.05;6.20;;;;;;;;;;5103843;28;20024;-66
2022/07/26 13:37:47;;;;;;;8.15;6.05;;;;;;;;;;5097469;28;20062;-65
2022/07/26 13:40:13;;;;;;;8.50;5.55;;;;;;;;;;5102306;28;20028;-67
2022/07/26 13:42:39;;;;;;;9.77;5.47;;;;;;;;;;5104422;28;20035;-64
2022/07/26 13:45:06;;;;;;;7.85;5.50;;;;;;;;;;5109177;28;20346;-65
2022/07/26 13:47:32;;;;;;;8.52;5.63;;;;;;;;;;5115575;28;20046;-66
2022/07/26 13:49:58;;;;;;;6.55;5.13;;;;;;;;;;5099664;28;20028;-66
2022/07/26 13:52:24;;;;;;;6.00;5.20;;;;;;;;;;5095908;28;20095;-65
2022/07/26 13:54:50;;;;;;;10.88;5.60;;;;;;;;;;5097451;28;20046;-64
2022/07/26 13:57:16;;;;;;;6.55;5.47;;;;;;;;;;5109496;28;20033;-66
2022/07/26 13:59:42;;;;;;;8.35;5.75;;;;;;;;;;5103890;28;20031;-65
2022/07/26 14:02:08;;;;;;;7.30;5.13;;;;;;;;;;5102208;28;20485;-66
2022/07/26 14:04:34;;;;;;;8.02;5.22;;;;;;;;;;5101295;27;20024;-64
2022/07/26 14:07:00;;;;;;;7.65;5.25;;;;;;;;;;5099655;28;20032;-65
2022/07/26 14:09:26;;;;;;;7.63;5.53;;;;;;;;;;5111813;28;20047;-65
2022/07/26 14:11:52;;;;;;;8.07;5.60;;;;;;;;;;5099517;28;20036;-65
2022/07/26 14:14:19;;;;;;;8.18;5.30;;;;;;;;;;5107492;28;20419;-66
2022/07/26 14:16:45;;;;;;;10.98;5.78;;;;;;;;;;5095658;28;20598;-68
2022/07/26 14:19:12;;;;;;;6.38;5.63;;;;;;;;;;5083802;28;20028;-67
2022/07/26 14:21:38;;;;;;;11.02;5.93;;;;;;;;;;5099228;28;20031;-67
2022/07/26 14:24:05;;;;;;;7.47;5.93;;;;;;;;;;5100727;28;20063;-67
2022/07/26 14:26:31;;;;;;;16.25;6.45;;;;;;;;;;5097184;28;20039;-68
2022/07/26 14:28:57;;;;;;;18.95;6.32;;;;;;;;;;5097027;28;20051;-67
2022/07/26 14:31:23;;;;;;;22.63;6.63;;;;;;;;;;5094565;28;20517;-67
2022/07/26 14:33:49;;;;;;;7.38;5.70;;;;;;;;;;5094388;28;20028;-67
2022/07/26 14:36:16;;;;;;;8.80;5.53;;;;;;;;;;5095659;28;20027;-68
2022/07/26 14:38:42;;;;;;;7.47;5.22;;;;;;;;;;5096288;28;20073;-68
2022/07/26 14:41:09;;;;;;;10.32;5.40;;;;;;;;;;5102943;28;20443;-67
2022/07/26 14:43:49;;;;;;;6.18;5.15;;;;;;;;;;5100986;28;20056;-67
2022/07/26 14:46:15;;;;;;;8.32;5.50;;;;;;;;;;5098555;28;20034;-67
2022/07/26 14:48:41;;;;;;;7.30;5.35;;;;;;;;;;5097403;28;20019;-67